Time;durP1;ratioP1;P1;durP2;ratioP2;P2;SDS_P1;SDS_P2;PMS_P1;PMS_P2;Temp;Humidity;BMP_temperature;BMP_pressure;BME280_temperature;BME280_humidity;BME280_pressure;Samples;Min_cycle;Max_cycle;Signal;HPM_P1;HPM_P2
2021/07/15 00:00:55;;;;;;;38.60;15.60;;;17.50;99.90;;;;;;4922181;29;20175;-85
2021/07/15 00:03:23;;;;;;;36.08;16.52;;;17.50;99.90;;;;;;4922071;29;20584;-84
2021/07/15 00:05:51;;;;;;;40.25;18.40;;;17.60;99.90;;;;;;4922021;29;20199;-87
2021/07/15 00:08:22;;;;;;;48.10;17.85;;;17.60;99.90;;;;;;4921922;29;20218;-85
2021/07/15 00:10:55;;;;;;;34.35;16.55;;;17.40;99.90;;;;;;4921721;29;20703;-85
2021/07/15 00:13:20;;;;;;;45.95;17.00;;;17.40;99.90;;;;;;4921452;29;20262;-86
2021/07/15 00:15:53;;;;;;;54.65;18.25;;;17.40;99.90;;;;;;4921438;29;20301;-87
2021/07/15 00:18:26;;;;;;;33.72;17.27;;;17.40;99.90;;;;;;4921675;29;20171;-86
2021/07/15 00:20:53;;;;;;;34.70;15.75;;;17.30;99.90;;;;;;4921847;29;20225;-85
2021/07/15 00:23:19;;;;;;;46.22;18.17;;;17.40;99.90;;;;;;4921826;29;20174;-88
2021/07/15 00:25:46;;;;;;;50.50;17.88;;;17.40;99.90;;;;;;4921359;29;20191;-86
2021/07/15 00:28:13;;;;;;;34.55;17.60;;;17.40;99.90;;;;;;4921177;29;20175;-85
2021/07/15 00:30:39;;;;;;;41.80;17.77;;;17.30;99.90;;;;;;4938025;29;20292;-87
2021/07/15 00:33:05;;;;;;;43.80;19.08;;;17.30;99.90;;;;;;4938311;29;20254;-84
2021/07/15 00:35:32;;;;;;;52.33;18.83;;;17.40;99.90;;;;;;4938007;29;20211;-86
2021/07/15 00:38:23;;;;;;;50.60;17.83;;;17.30;99.90;;;;;;4921348;29;20168;-85
2021/07/15 00:40:49;;;;;;;48.60;19.35;;;17.40;99.90;;;;;;4920798;29;20175;-84
2021/07/15 00:43:15;;;;;;;53.38;18.48;;;17.40;99.90;;;;;;4921192;29;20175;-86
2021/07/15 00:45:41;;;;;;;47.72;18.05;;;17.40;99.90;;;;;;4920792;29;20682;-87
2021/07/15 00:48:07;;;;;;;43.40;18.98;;;17.40;99.90;;;;;;4921021;29;20186;-84
2021/07/15 00:50:33;;;;;;;42.47;18.13;;;17.40;99.90;;;;;;4921494;29;20175;-88
2021/07/15 00:53:02;;;;;;;48.88;19.00;;;17.40;99.90;;;;;;4921691;29;20254;-86
2021/07/15 00:55:32;;;;;;;47.05;20.42;;;17.40;99.90;;;;;;4920897;29;20707;-87
2021/07/15 00:57:58;;;;;;;45.75;20.25;;;17.50;99.90;;;;;;4921087;29;20265;-87
2021/07/15 01:00:25;;;;;;;48.53;20.40;;;17.50;99.90;;;;;;4920953;29;20190;-85
2021/07/15 01:02:52;;;;;;;51.20;19.50;;;17.40;99.90;;;;;;4920889;29;20199;-85
2021/07/15 01:05:26;;;;;;;50.05;18.38;;;17.50;99.90;;;;;;4920865;29;20211;-88
2021/07/15 01:08:11;;;;;;;51.35;18.95;;;17.40;99.90;;;;;;4920877;29;20178;-86
2021/07/15 01:10:40;;;;;;;54.17;18.20;;;17.40;99.90;;;;;;4920731;29;20970;-88
2021/07/15 01:13:28;;;;;;;42.85;17.48;;;17.40;99.90;;;;;;4937726;29;20703;-86
2021/07/15 01:15:59;;;;;;;35.15;17.05;;;17.40;99.90;;;;;;4920832;29;20272;-85
2021/07/15 01:18:31;;;;;;;45.92;16.67;;;17.40;99.90;;;;;;4937477;29;20230;-87
2021/07/15 01:21:22;;;;;;;38.78;16.25;;;17.50;99.90;;;;;;4937672;29;20222;-87
2021/07/15 01:24:32;;;;;;;41.25;16.00;;;17.50;99.90;;;;;;4920125;29;20748;-89
2021/07/15 01:27:23;;;;;;;48.15;18.38;;;17.40;99.90;;;;;;4918040;29;20854;-87
2021/07/15 01:30:11;;;;;;;32.22;15.25;;;17.50;99.90;;;;;;4920454;29;20171;-87
2021/07/15 01:33:00;;;;;;;41.33;15.13;;;17.40;99.90;;;;;;4937506;29;20529;-85
2021/07/15 01:35:29;;;;;;;49.00;16.13;;;17.40;99.90;;;;;;4920374;29;20222;-87
2021/07/15 01:38:02;;;;;;;43.58;15.35;;;17.60;99.90;;;;;;4920261;29;20679;-84
2021/07/15 01:40:35;;;;;;;52.33;16.48;;;17.50;99.90;;;;;;4937312;29;20183;-86
2021/07/15 01:43:06;;;;;;;45.28;14.75;;;17.50;99.90;;;;;;4920678;29;20258;-84
2021/07/15 01:45:32;;;;;;;43.88;15.43;;;17.50;99.90;;;;;;4920096;29;20195;-86
2021/07/15 01:47:59;;;;;;;45.22;16.95;;;17.50;99.90;;;;;;4920440;29;20171;-87
2021/07/15 01:50:25;;;;;;;39.88;16.15;;;17.50;99.90;;;;;;4920304;29;20183;-87
2021/07/15 01:52:52;;;;;;;51.90;16.58;;;17.50;99.90;;;;;;4919377;29;20185;-83
2021/07/15 01:55:19;;;;;;;39.65;15.98;;;17.40;99.90;;;;;;4920123;29;20273;-83
2021/07/15 01:57:47;;;;;;;44.15;15.95;;;17.40;99.90;;;;;;4919889;29;20250;-84
2021/07/15 02:00:14;;;;;;;38.42;15.65;;;17.40;99.90;;;;;;4919789;29;20191;-86
2021/07/15 02:02:41;;;;;;;47.45;16.50;;;17.50;99.90;;;;;;4919858;29;20167;-84
2021/07/15 02:05:09;;;;;;;45.67;16.73;;;17.40;99.90;;;;;;4936597;29;20211;-86
2021/07/15 02:07:37;;;;;;;57.08;18.13;;;17.40;99.90;;;;;;4920087;29;20234;-84
2021/07/15 02:10:07;;;;;;;41.05;17.05;;;17.40;99.90;;;;;;4920087;29;20175;-85
2021/07/15 02:12:35;;;;;;;46.78;17.10;;;17.40;99.90;;;;;;4920015;29;20237;-87
2021/07/15 02:15:01;;;;;;;47.38;19.35;;;17.40;99.90;;;;;;4919600;29;20203;-88
2021/07/15 02:17:27;;;;;;;44.10;17.38;;;17.40;99.90;;;;;;4920037;29;20176;-84
2021/07/15 02:19:56;;;;;;;48.00;18.95;;;17.40;99.90;;;;;;4919651;29;20191;-86
2021/07/15 02:22:22;;;;;;;35.78;18.70;;;17.40;99.90;;;;;;4936249;29;20176;-84
2021/07/15 02:24:49;;;;;;;44.20;17.17;;;17.30;99.90;;;;;;4936359;29;20205;-85
2021/07/15 02:27:16;;;;;;;38.08;15.45;;;17.30;99.90;;;;;;4919323;29;20679;-87
2021/07/15 02:29:42;;;;;;;45.95;16.40;;;17.40;99.90;;;;;;4936870;29;20167;-86
2021/07/15 02:32:10;;;;;;;31.95;15.52;;;17.40;99.90;;;;;;4936487;29;20169;-86
2021/07/15 02:34:39;;;;;;;42.15;15.10;;;17.40;99.90;;;;;;4935915;29;20587;-85
2021/07/15 02:37:05;;;;;;;41.22;15.68;;;17.30;99.90;;;;;;4919770;29;20731;-87
2021/07/15 02:39:32;;;;;;;32.72;15.98;;;17.30;99.90;;;;;;4919638;29;20179;-86
2021/07/15 02:41:58;;;;;;;42.13;16.35;;;17.20;99.90;;;;;;4919347;29;20561;-84
2021/07/15 02:44:27;;;;;;;45.05;14.82;;;17.20;99.90;;;;;;4919426;29;20191;-85
2021/07/15 02:46:53;;;;;;;36.72;14.43;;;17.20;99.90;;;;;;4919253;29;20174;-86
2021/07/15 02:49:18;;;;;;;42.60;16.50;;;17.10;99.90;;;;;;4919334;29;20175;-85
2021/07/15 02:51:44;;;;;;;53.08;17.23;;;17.10;99.90;;;;;;4936645;29;20628;-84
2021/07/15 02:54:10;;;;;;;37.22;15.98;;;17.10;99.90;;;;;;4919357;29;20265;-85
2021/07/15 02:56:43;;;;;;;41.35;16.92;;;17.00;99.90;;;;;;4919233;29;20212;-86
2021/07/15 02:59:43;;;;;;;49.38;17.90;;;17.20;99.90;;;;;;4935879;29;20173;-86
2021/07/15 03:02:18;;;;;;;42.13;15.95;;;17.10;99.90;;;;;;4918898;29;20594;-86
2021/07/15 03:05:09;;;;;;;45.33;16.73;;;17.20;99.90;;;;;;4918296;29;20211;-87
2021/07/15 03:07:46;;;;;;;32.65;17.02;;;17.20;99.90;;;;;;4919223;29;20175;-88
2021/07/15 03:10:14;;;;;;;49.33;18.20;;;17.20;99.90;;;;;;4919287;29;20167;-85
2021/07/15 03:12:41;;;;;;;39.75;17.70;;;17.20;99.90;;;;;;4933235;29;20186;-85
2021/07/15 03:15:07;;;;;;;38.25;16.52;;;17.20;99.90;;;;;;4938037;29;20260;-85
2021/07/15 03:17:37;;;;;;;41.17;15.98;;;17.20;99.90;;;;;;4938279;29;20162;-86
2021/07/15 03:20:11;;;;;;;40.97;16.73;;;17.20;99.90;;;;;;4955363;29;20646;-82
2021/07/15 03:22:38;;;;;;;56.08;16.98;;;17.20;99.90;;;;;;4953786;29;20265;-85
2021/07/15 03:25:10;;;;;;;45.65;16.10;;;17.20;99.90;;;;;;4937889;29;20277;-85
2021/07/15 03:27:41;;;;;;;43.13;17.30;;;17.20;99.90;;;;;;4954537;29;20174;-86
2021/07/15 03:30:08;;;;;;;34.83;15.48;;;17.20;99.90;;;;;;4937661;29;20170;-87
2021/07/15 03:32:36;;;;;;;39.38;17.33;;;17.20;99.90;;;;;;4938026;29;20534;-86
2021/07/15 03:35:02;;;;;;;37.25;17.13;;;17.20;99.90;;;;;;4937342;29;20202;-83
2021/07/15 03:37:28;;;;;;;31.83;15.75;;;17.30;99.90;;;;;;4937657;29;20181;-86
2021/07/15 03:39:55;;;;;;;57.20;16.33;;;17.30;99.90;;;;;;4937865;29;20265;-83
2021/07/15 03:42:22;;;;;;;36.15;15.25;;;17.40;99.90;;;;;;4954953;29;20181;-84
2021/07/15 03:44:49;;;;;;;44.22;17.70;;;17.30;99.90;;;;;;4954263;29;20218;-86
2021/07/15 03:47:16;;;;;;;49.55;15.35;;;17.20;99.90;;;;;;4937484;29;20206;-86
2021/07/15 03:49:43;;;;;;;55.13;15.93;;;17.20;99.90;;;;;;4937667;29;20190;-86
2021/07/15 03:52:13;;;;;;;39.67;15.90;;;17.20;99.90;;;;;;4954389;29;20178;-86
2021/07/15 03:54:41;;;;;;;43.97;17.42;;;17.20;99.90;;;;;;4954574;29;20207;-86
2021/07/15 03:57:10;;;;;;;42.85;16.80;;;17.30;99.90;;;;;;4937651;29;20659;-84
2021/07/15 03:59:42;;;;;;;41.47;17.05;;;17.30;99.90;;;;;;4937226;29;20178;-87
2021/07/15 04:02:08;;;;;;;40.80;17.73;;;17.40;99.90;;;;;;4954300;29;20173;-82
2021/07/15 04:04:35;;;;;;;44.67;17.38;;;17.40;99.90;;;;;;4937185;29;20544;-86
2021/07/15 04:07:04;;;;;;;37.45;15.85;;;17.40;99.90;;;;;;4937627;29;20713;-87
2021/07/15 04:09:34;;;;;;;54.45;17.08;;;17.30;99.90;;;;;;4954856;29;20553;-84
2021/07/15 04:12:01;;;;;;;44.17;17.58;;;17.30;99.90;;;;;;4937194;29;20170;-87
2021/07/15 04:14:39;;;;;;;35.67;16.83;;;17.20;99.90;;;;;;4953218;29;20245;-85
2021/07/15 04:17:07;;;;;;;38.08;16.80;;;17.30;99.90;;;;;;4939593;29;20177;-86
2021/07/15 04:19:35;;;;;;;43.17;16.83;;;17.30;99.90;;;;;;4957920;29;20679;-85
2021/07/15 04:22:06;;;;;;;43.63;16.42;;;17.30;99.90;;;;;;4940770;29;20606;-83
2021/07/15 04:24:33;;;;;;;38.30;16.30;;;17.30;99.90;;;;;;4940988;29;20194;-87
2021/07/15 04:27:02;;;;;;;32.50;17.65;;;17.20;99.90;;;;;;4957770;29;20167;-84
2021/07/15 04:29:29;;;;;;;35.65;16.15;;;17.20;99.90;;;;;;4957833;29;20313;-83
2021/07/15 04:32:02;;;;;;;45.72;16.73;;;17.20;99.90;;;;;;4957734;29;20508;-83
2021/07/15 04:34:29;;;;;;;40.63;17.13;;;17.20;99.90;;;;;;4957543;29;20208;-83
2021/07/15 04:36:56;;;;;;;42.65;17.00;;;17.20;99.90;;;;;;4940584;29;20269;-83
2021/07/15 04:39:26;;;;;;;42.05;16.63;;;17.30;99.90;;;;;;4940356;29;20170;-83
2021/07/15 04:41:54;;;;;;;28.42;15.15;;;17.40;99.90;;;;;;4957187;29;20173;-84
2021/07/15 04:44:21;;;;;;;30.38;16.23;;;17.50;99.90;;;;;;4957136;29;20598;-82
2021/07/15 04:46:50;;;;;;;49.58;15.70;;;17.50;99.90;;;;;;4957367;29;20179;-87
2021/07/15 04:49:18;;;;;;;39.25;16.05;;;17.30;99.90;;;;;;4939713;29;20309;-83
2021/07/15 04:51:45;;;;;;;35.47;16.83;;;17.20;99.90;;;;;;4939810;29;20381;-83
2021/07/15 04:54:14;;;;;;;34.60;16.17;;;17.20;99.90;;;;;;4939447;29;20198;-86
2021/07/15 04:56:40;;;;;;;42.63;16.08;;;17.20;99.90;;;;;;4956756;29;20171;-84
2021/07/15 04:59:07;;;;;;;43.90;15.88;;;17.20;99.90;;;;;;4940131;29;20174;-87
2021/07/15 05:01:35;;;;;;;44.17;16.58;;;17.20;99.90;;;;;;4939872;29;20167;-87
2021/07/15 05:04:01;;;;;;;33.83;16.70;;;17.30;99.90;;;;;;4957668;29;20210;-85
2021/07/15 05:06:26;;;;;;;43.45;15.70;;;17.20;99.90;;;;;;4939621;29;20539;-85
2021/07/15 05:08:52;;;;;;;37.63;16.48;;;17.30;99.90;;;;;;4939453;29;20177;-83
2021/07/15 05:11:20;;;;;;;34.25;16.17;;;17.30;99.90;;;;;;4954888;29;20206;-82
2021/07/15 05:13:46;;;;;;;46.72;15.38;;;17.30;99.90;;;;;;4938836;29;20258;-84
2021/07/15 05:16:11;;;;;;;37.08;16.67;;;17.40;99.90;;;;;;4938875;29;20310;-83
2021/07/15 05:18:37;;;;;;;48.40;15.90;;;17.50;99.90;;;;;;4956180;29;20184;-83
2021/07/15 05:21:03;;;;;;;31.77;16.88;;;17.50;99.90;;;;;;4939181;29;20177;-84
2021/07/15 05:23:29;;;;;;;36.45;16.10;;;17.40;99.90;;;;;;4939120;29;20539;-86
2021/07/15 05:25:56;;;;;;;46.70;15.57;;;17.40;99.90;;;;;;4956130;29;20163;-85
2021/07/15 05:28:22;;;;;;;31.60;15.40;;;17.40;99.90;;;;;;4954057;28;20234;-84
2021/07/15 05:30:48;;;;;;;40.83;16.85;;;17.40;99.90;;;;;;4939018;29;20707;-87
2021/07/15 05:33:13;;;;;;;37.72;15.80;;;17.30;99.90;;;;;;4955832;29;20170;-83
2021/07/15 05:35:43;;;;;;;32.22;15.27;;;17.40;99.90;;;;;;4954603;29;20265;-85
2021/07/15 05:38:09;;;;;;;30.33;14.52;;;17.40;99.90;;;;;;4938933;29;20182;-87
2021/07/15 05:40:34;;;;;;;31.98;14.55;;;17.40;99.90;;;;;;4954577;28;20567;-84
2021/07/15 05:43:00;;;;;;;37.47;15.23;;;17.50;99.90;;;;;;4938178;29;20175;-83
2021/07/15 05:45:26;;;;;;;36.78;15.10;;;17.50;99.90;;;;;;4955329;29;20198;-83
2021/07/15 05:47:52;;;;;;;30.80;14.13;;;17.60;99.90;;;;;;4955622;29;20257;-83
2021/07/15 05:50:18;;;;;;;36.35;14.65;;;17.60;99.90;;;;;;4938180;29;20185;-85
2021/07/15 05:52:43;;;;;;;30.00;13.45;;;17.50;99.90;;;;;;4937930;29;20197;-83
2021/07/15 05:55:10;;;;;;;27.98;12.98;;;17.40;99.90;;;;;;4955401;29;20210;-83
2021/07/15 05:57:36;;;;;;;25.65;13.32;;;17.40;99.90;;;;;;4937964;29;20181;-86
2021/07/15 06:00:06;;;;;;;33.03;12.95;;;17.50;99.90;;;;;;4955288;29;20171;-84
2021/07/15 06:02:31;;;;;;;21.98;12.77;;;17.50;99.90;;;;;;4954903;29;20206;-82
2021/07/15 06:04:57;;;;;;;21.77;13.20;;;17.60;99.90;;;;;;4954944;29;20205;-83
2021/07/15 06:07:22;;;;;;;24.17;12.98;;;17.50;99.90;;;;;;4937711;29;20174;-85
2021/07/15 06:09:48;;;;;;;26.30;12.45;;;17.50;99.90;;;;;;4954749;29;20163;-82
2021/07/15 06:12:14;;;;;;;23.25;12.88;;;17.50;99.90;;;;;;4936494;29;20215;-84
2021/07/15 06:14:39;;;;;;;26.35;12.63;;;17.50;99.90;;;;;;4937572;29;20218;-82
2021/07/15 06:17:05;;;;;;;23.25;11.85;;;17.50;99.90;;;;;;4953950;29;20163;-83
2021/07/15 06:19:31;;;;;;;24.15;12.45;;;17.50;99.90;;;;;;4937827;29;20174;-83
2021/07/15 06:21:56;;;;;;;25.95;12.63;;;17.50;99.90;;;;;;4955103;29;20174;-83
2021/07/15 06:24:22;;;;;;;24.80;11.40;;;17.50;99.90;;;;;;4954268;29;20221;-83
2021/07/15 06:26:48;;;;;;;23.67;11.15;;;17.40;99.90;;;;;;4953771;29;20262;-82
2021/07/15 06:29:14;;;;;;;26.85;11.32;;;17.30;99.90;;;;;;4935086;29;20166;-85
2021/07/15 06:31:40;;;;;;;20.90;11.23;;;17.40;99.90;;;;;;4917814;29;20344;-78
2021/07/15 06:34:06;;;;;;;21.90;11.52;;;17.50;99.90;;;;;;4935118;29;20682;-78
2021/07/15 06:36:32;;;;;;;32.17;12.50;;;17.50;99.90;;;;;;4935017;29;20261;-78
2021/07/15 06:38:59;;;;;;;29.65;11.93;;;17.50;99.90;;;;;;4935003;29;20168;-78
2021/07/15 06:41:25;;;;;;;17.58;11.68;;;17.50;99.90;;;;;;4935125;29;20666;-78
2021/07/15 06:43:51;;;;;;;18.85;11.60;;;17.50;99.90;;;;;;4934927;29;20191;-77
2021/07/15 06:46:17;;;;;;;21.05;10.70;;;17.60;99.90;;;;;;4934663;29;20185;-78
2021/07/15 06:48:43;;;;;;;21.42;11.27;;;17.60;99.90;;;;;;4934872;29;20163;-78
2021/07/15 06:51:09;;;;;;;27.63;12.40;;;17.60;99.90;;;;;;4934835;29;20226;-78
2021/07/15 06:53:35;;;;;;;25.50;11.10;;;17.70;99.90;;;;;;4934636;29;20182;-79
2021/07/15 06:56:01;;;;;;;18.45;11.13;;;17.70;99.90;;;;;;4934839;29;20607;-78
2021/07/15 06:58:28;;;;;;;23.98;14.10;;;17.70;99.90;;;;;;4934692;29;20172;-78
2021/07/15 07:00:57;;;;;;;33.10;13.80;;;17.60;99.90;;;;;;4935023;29;20198;-78
2021/07/15 07:03:24;;;;;;;37.78;13.90;;;17.50;99.90;;;;;;4934132;29;20198;-78
2021/07/15 07:05:50;;;;;;;37.65;15.40;;;17.50;99.90;;;;;;4934704;29;20222;-77
2021/07/15 07:08:16;;;;;;;32.78;14.77;;;17.50;99.90;;;;;;4917735;29;20178;-78
2021/07/15 07:10:42;;;;;;;30.55;14.10;;;17.50;99.90;;;;;;4934633;29;20167;-78
2021/07/15 07:13:08;;;;;;;40.28;14.88;;;17.40;99.90;;;;;;4934661;29;20202;-78
2021/07/15 07:15:33;;;;;;;36.05;14.82;;;17.40;99.90;;;;;;4934407;29;20290;-79
2021/07/15 07:17:59;;;;;;;54.42;16.38;;;17.50;99.90;;;;;;4934712;29;20695;-78
2021/07/15 07:20:24;;;;;;;32.00;12.90;;;17.50;99.90;;;;;;4934768;29;20176;-77
2021/07/15 07:22:50;;;;;;;41.53;16.50;;;17.50;99.90;;;;;;4933022;29;20183;-77
2021/07/15 07:25:17;;;;;;;27.55;14.60;;;17.40;99.90;;;;;;4931289;29;20199;-78
2021/07/15 07:27:43;;;;;;;36.17;14.95;;;17.50;99.90;;;;;;4934116;29;20167;-77
2021/07/15 07:30:12;;;;;;;32.00;14.23;;;17.50;99.90;;;;;;4917135;29;20182;-78
2021/07/15 07:32:38;;;;;;;34.20;13.48;;;17.70;99.90;;;;;;4917696;29;20786;-79
2021/07/15 07:35:05;;;;;;;36.72;14.98;;;17.60;99.90;;;;;;4916281;29;20301;-77
2021/07/15 07:37:31;;;;;;;34.05;13.23;;;17.60;99.90;;;;;;4934219;29;20479;-78
2021/07/15 07:39:57;;;;;;;46.20;13.98;;;17.50;99.90;;;;;;4933999;29;20175;-79
2021/07/15 07:42:23;;;;;;;38.63;14.10;;;17.60;99.90;;;;;;4942410;29;20699;-77
2021/07/15 07:44:49;;;;;;;33.08;13.73;;;17.50;99.90;;;;;;4934042;29;20199;-77
2021/07/15 07:47:15;;;;;;;21.85;11.10;;;17.50;99.90;;;;;;4934027;29;20164;-80
2021/07/15 07:49:40;;;;;;;27.30;13.93;;;17.40;99.90;;;;;;4934956;29;20172;-81
2021/07/15 07:52:06;;;;;;;28.45;12.90;;;17.40;99.90;;;;;;4936596;29;20186;-77
2021/07/15 07:54:32;;;;;;;29.73;12.52;;;17.50;99.90;;;;;;4937091;29;20210;-77
2021/07/15 07:56:58;;;;;;;27.27;12.20;;;17.50;99.90;;;;;;4936580;29;20189;-77
2021/07/15 07:59:24;;;;;;;23.38;13.43;;;17.60;99.90;;;;;;4937536;29;20176;-78
2021/07/15 08:01:49;;;;;;;25.25;12.38;;;17.70;99.90;;;;;;4937792;29;20198;-79
2021/07/15 08:04:15;;;;;;;16.90;10.45;;;17.70;99.90;;;;;;4938045;29;20217;-85
2021/07/15 08:06:42;;;;;;;23.80;11.55;;;17.70;99.90;;;;;;4937930;29;20245;-79
2021/07/15 08:09:16;;;;;;;20.33;12.20;;;17.60;99.90;;;;;;4938065;29;20167;-80
2021/07/15 08:11:48;;;;;;;23.65;12.73;;;17.70;99.90;;;;;;4937783;29;20162;-81
2021/07/15 08:14:14;;;;;;;24.50;11.43;;;17.60;99.90;;;;;;4920567;29;20768;-81
2021/07/15 08:16:39;;;;;;;22.48;12.85;;;17.70;99.90;;;;;;4920497;29;20187;-81
2021/07/15 08:19:05;;;;;;;20.23;12.13;;;17.60;99.90;;;;;;4937593;29;20171;-80
2021/07/15 08:21:31;;;;;;;37.20;11.52;;;17.70;99.90;;;;;;4937656;29;20171;-79
2021/07/15 08:23:58;;;;;;;30.75;12.48;;;17.70;99.90;;;;;;4937446;29;20191;-78
2021/07/15 08:26:26;;;;;;;26.17;12.32;;;17.80;99.90;;;;;;4920123;29;20179;-79
2021/07/15 08:29:05;;;;;;;24.45;12.02;;;17.70;99.90;;;;;;4937525;29;20182;-79
2021/07/15 08:31:45;;;;;;;24.00;12.05;;;17.60;99.90;;;;;;4920269;29;20278;-79
2021/07/15 08:34:11;;;;;;;33.90;11.90;;;17.60;99.90;;;;;;4919966;29;20187;-79
2021/07/15 08:36:37;;;;;;;28.70;12.38;;;17.60;99.90;;;;;;4920364;29;20206;-79
2021/07/15 08:39:09;;;;;;;29.30;12.13;;;17.70;99.90;;;;;;4936869;29;20629;-79
2021/07/15 08:41:36;;;;;;;20.35;11.13;;;17.80;99.90;;;;;;4937359;29;20167;-79
2021/07/15 08:44:05;;;;;;;29.38;12.20;;;17.80;99.90;;;;;;4937190;29;20286;-79
2021/07/15 08:46:33;;;;;;;32.95;13.48;;;17.70;99.90;;;;;;4937047;29;20174;-86
2021/07/15 08:49:00;;;;;;;24.70;12.00;;;17.70;99.90;;;;;;4928392;29;20180;-81
2021/07/15 08:51:28;;;;;;;26.50;11.98;;;17.50;99.90;;;;;;4917529;29;20243;-82
2021/07/15 08:53:54;;;;;;;23.83;12.18;;;17.40;99.90;;;;;;4915694;29;20231;-78
2021/07/15 08:56:53;;;;;;;19.88;11.90;;;17.40;99.90;;;;;;4917277;29;20245;-82
2021/07/15 08:59:14;;;;;;;18.00;12.90;;;17.40;99.90;;;;;;4926966;29;20214;-81
2021/07/15 09:01:50;;;;;;;27.98;12.48;;;17.30;99.90;;;;;;4935537;29;20175;-83
2021/07/15 09:04:20;;;;;;;35.10;13.13;;;17.20;99.90;;;;;;4917434;29;20207;-80
2021/07/15 09:06:46;;;;;;;32.13;12.95;;;17.10;99.90;;;;;;4919118;29;20175;-82
2021/07/15 09:09:12;;;;;;;24.75;12.48;;;17.00;99.90;;;;;;4935945;29;20659;-86
2021/07/15 09:11:39;;;;;;;28.40;13.10;;;17.10;99.90;;;;;;4936434;29;20315;-81
2021/07/15 09:14:42;;;;;;;18.42;13.02;;;17.10;99.90;;;;;;4935534;29;20183;-80
2021/07/15 09:17:07;;;;;;;24.85;13.23;;;17.20;99.90;;;;;;4936043;29;20515;-80
2021/07/15 09:19:33;;;;;;;33.25;13.05;;;17.30;99.90;;;;;;4935877;29;20282;-83
2021/07/15 09:22:09;;;;;;;32.53;14.55;;;17.40;99.90;;;;;;4918561;29;20321;-83
2021/07/15 09:24:44;;;;;;;34.80;15.05;;;17.40;99.90;;;;;;4918511;29;20199;-81
2021/07/15 09:27:27;;;;;;;31.75;14.00;;;17.50;99.90;;;;;;4935906;29;20175;-79
2021/07/15 09:30:12;;;;;;;24.10;14.10;;;17.60;99.90;;;;;;4918712;29;20172;-79
2021/07/15 09:33:01;;;;;;;32.17;13.80;;;17.70;99.90;;;;;;4933556;29;20171;-81
2021/07/15 09:35:35;;;;;;;35.40;14.40;;;17.70;99.90;;;;;;4913128;29;20274;-79
2021/07/15 09:38:21;;;;;;;37.08;14.23;;;17.70;99.90;;;;;;4924608;29;20182;-84
2021/07/15 09:40:56;;;;;;;21.10;13.55;;;17.70;99.90;;;;;;4925027;29;20183;-82
2021/07/15 09:43:28;;;;;;;20.92;13.25;;;17.60;99.90;;;;;;4918019;29;20177;-81
2021/07/15 09:45:56;;;;;;;25.65;14.18;;;17.80;99.90;;;;;;4916204;29;20179;-81
2021/07/15 09:48:25;;;;;;;22.58;14.02;;;17.70;99.90;;;;;;4917299;29;20254;-82
2021/07/15 09:50:55;;;;;;;26.80;14.00;;;17.70;99.90;;;;;;4933688;29;20183;-82
2021/07/15 09:53:29;;;;;;;24.98;14.98;;;17.70;99.90;;;;;;4917198;29;20179;-82
2021/07/15 09:55:59;;;;;;;35.47;14.95;;;17.80;99.90;;;;;;4917244;29;20206;-82
2021/07/15 09:58:24;;;;;;;28.83;15.60;;;17.80;99.90;;;;;;4917196;29;20171;-83
2021/07/15 10:00:50;;;;;;;22.05;13.73;;;17.60;99.90;;;;;;4934309;29;20590;-81
2021/07/15 10:03:17;;;;;;;22.88;16.27;;;17.50;99.90;;;;;;4918056;29;20178;-83
2021/07/15 10:05:53;;;;;;;33.08;16.48;;;17.60;99.90;;;;;;4917149;29;20679;-83
2021/07/15 10:08:28;;;;;;;30.00;16.60;;;17.70;99.90;;;;;;4934888;29;20171;-85
2021/07/15 10:10:55;;;;;;;39.88;16.63;;;17.60;99.90;;;;;;4934282;29;20178;-80
2021/07/15 10:13:23;;;;;;;25.00;15.57;;;17.60;99.90;;;;;;4933918;29;20265;-80
2021/07/15 10:15:50;;;;;;;26.55;16.33;;;17.70;99.90;;;;;;4933841;29;20215;-82
2021/07/15 10:18:34;;;;;;;44.47;21.70;;;17.80;99.90;;;;;;4934629;29;20734;-78
2021/07/15 10:21:00;;;;;;;34.90;16.92;;;17.70;99.90;;;;;;4934455;29;20186;-83
2021/07/15 10:23:38;;;;;;;34.85;17.25;;;17.70;99.90;;;;;;4916924;29;20246;-81
2021/07/15 10:26:06;;;;;;;36.92;17.05;;;17.70;99.90;;;;;;4940451;29;20198;-82
2021/07/15 10:28:32;;;;;;;36.70;17.05;;;17.60;99.90;;;;;;4915462;29;20171;-80
2021/07/15 10:31:00;;;;;;;27.25;16.77;;;17.50;99.90;;;;;;4933989;29;20193;-80
2021/07/15 10:33:28;;;;;;;39.20;16.50;;;17.50;99.90;;;;;;4934400;29;20163;-81
2021/07/15 10:35:54;;;;;;;31.25;17.60;;;17.60;99.90;;;;;;4933694;29;20855;-80
2021/07/15 10:38:20;;;;;;;35.83;16.75;;;17.60;99.90;;;;;;4934454;29;20648;-80
2021/07/15 10:40:49;;;;;;;35.38;17.20;;;17.70;99.90;;;;;;4934895;29;20509;-83
2021/07/15 10:43:15;;;;;;;31.30;16.92;;;17.50;99.90;;;;;;4934738;29;20167;-80
2021/07/15 10:45:41;;;;;;;36.90;18.15;;;17.60;99.90;;;;;;4916548;29;20199;-80
2021/07/15 10:48:08;;;;;;;25.50;16.23;;;17.50;99.90;;;;;;4933611;29;20624;-81
2021/07/15 10:50:34;;;;;;;33.67;18.58;;;17.70;99.90;;;;;;4934047;29;20178;-81
2021/07/15 10:53:00;;;;;;;29.45;19.23;;;17.80;99.90;;;;;;4933863;29;20254;-80
2021/07/15 10:55:26;;;;;;;34.72;18.17;;;17.80;99.90;;;;;;4932794;29;20703;-80
2021/07/15 10:57:52;;;;;;;31.77;16.45;;;17.80;99.90;;;;;;4933515;29;20171;-79
2021/07/15 11:00:24;;;;;;;40.47;18.33;;;17.70;99.90;;;;;;4934616;29;20254;-79
2021/07/15 11:03:13;;;;;;;29.08;17.25;;;17.70;99.90;;;;;;4934005;29;20636;-80
2021/07/15 11:05:54;;;;;;;35.50;17.85;;;17.60;99.90;;;;;;4934829;29;20203;-80
2021/07/15 11:08:45;;;;;;;30.00;17.10;;;17.60;99.90;;;;;;4934741;29;20179;-80
2021/07/15 11:11:12;;;;;;;29.25;16.92;;;17.60;99.90;;;;;;4934731;29;20178;-80
2021/07/15 11:13:38;;;;;;;35.10;18.20;;;17.70;99.90;;;;;;4934211;29;20517;-80
2021/07/15 11:16:06;;;;;;;33.55;18.02;;;17.70;99.90;;;;;;4934761;29;20265;-81
2021/07/15 11:18:46;;;;;;;32.47;18.73;;;17.50;99.90;;;;;;4934600;29;20578;-80
2021/07/15 11:21:27;;;;;;;40.25;18.73;;;17.50;99.90;;;;;;4934981;29;20175;-81
2021/07/15 11:24:04;;;;;;;43.70;18.60;;;17.40;99.90;;;;;;4934711;29;20195;-80
2021/07/15 11:26:43;;;;;;;35.53;17.55;;;17.50;99.90;;;;;;4919787;29;20261;-83
2021/07/15 11:29:13;;;;;;;34.85;17.25;;;17.50;99.90;;;;;;4938519;29;20185;-84
2021/07/15 11:31:47;;;;;;;37.15;19.05;;;17.50;99.90;;;;;;4938421;29;20167;-83
2021/07/15 11:34:50;;;;;;;25.75;17.33;;;17.50;99.90;;;;;;4921270;29;20201;-83
2021/07/15 11:37:35;;;;;;;36.03;19.17;;;17.70;99.90;;;;;;4864077;29;20183;-83
2021/07/15 11:40:31;;;;;;;27.27;17.77;;;17.70;99.90;;;;;;4917676;29;20197;-83
2021/07/15 11:43:16;;;;;;;34.13;17.63;;;17.70;99.90;;;;;;4921243;29;20191;-82
2021/07/15 11:46:12;;;;;;;33.78;18.08;;;17.70;99.90;;;;;;4938004;29;20187;-82
2021/07/15 11:48:47;;;;;;;31.85;17.55;;;17.70;99.90;;;;;;4921216;29;20172;-84
2021/07/15 11:51:22;;;;;;;34.20;18.17;;;17.80;99.90;;;;;;4920257;29;20198;-83
2021/07/15 11:54:22;;;;;;;29.83;17.58;;;17.80;99.90;;;;;;4929193;29;20182;-82
2021/07/15 11:56:58;;;;;;;39.65;18.73;;;17.90;99.90;;;;;;4916360;29;20637;-84
2021/07/15 11:59:39;;;;;;;29.20;18.25;;;17.80;99.90;;;;;;4916889;29;20180;-84
2021/07/15 12:02:42;;;;;;;27.30;17.52;;;17.70;99.90;;;;;;4918969;29;20182;-84
2021/07/15 12:05:10;;;;;;;38.38;18.45;;;17.80;99.90;;;;;;4911091;29;20231;-82
2021/07/15 12:07:48;;;;;;;38.70;19.33;;;17.80;99.90;;;;;;4919988;29;20258;-82
2021/07/15 12:10:19;;;;;;;40.00;17.00;;;18.00;99.90;;;;;;4919957;29;20178;-83
2021/07/15 12:12:45;;;;;;;30.75;18.08;;;18.00;99.90;;;;;;4935384;29;20227;-82
2021/07/15 12:15:19;;;;;;;28.30;17.08;;;17.80;99.90;;;;;;4918010;29;20213;-83
2021/07/15 12:17:50;;;;;;;22.80;17.70;;;17.80;99.90;;;;;;4919367;29;20179;-82
2021/07/15 12:20:18;;;;;;;28.05;17.45;;;17.80;99.90;;;;;;4919750;29;20175;-82
2021/07/15 12:22:52;;;;;;;23.23;15.73;;;17.80;99.90;;;;;;4935173;29;20534;-83
2021/07/15 12:25:25;;;;;;;32.95;16.45;;;17.80;99.90;;;;;;4936046;29;20195;-83
2021/07/15 12:27:55;;;;;;;34.40;17.15;;;17.80;99.90;;;;;;4918845;29;20214;-83
2021/07/15 12:30:23;;;;;;;35.58;17.88;;;17.90;99.90;;;;;;4919628;29;20163;-82
2021/07/15 12:32:58;;;;;;;32.00;15.68;;;17.90;99.90;;;;;;4919151;29;20258;-82
2021/07/15 12:35:28;;;;;;;25.98;15.55;;;17.80;99.90;;;;;;4918859;29;20211;-83
2021/07/15 12:37:55;;;;;;;30.83;17.38;;;17.70;99.90;;;;;;4935767;29;20182;-84
2021/07/15 12:40:29;;;;;;;29.65;17.90;;;17.80;99.90;;;;;;4936044;29;20182;-84
2021/07/15 12:43:10;;;;;;;32.70;17.02;;;17.70;99.90;;;;;;4919075;29;20233;-83